sensor_id;sensor_type;location;lat;lon;timestamp;pressure;altitude;pressure_sealevel;temperature;humidity
21203;BME280;10759;51.982;9.232;2023-02-22T00:01:54;100414.28;;;8.44;100.00
21203;BME280;10759;51.982;9.232;2023-02-22T00:04:48;100396.75;;;8.33;100.00
21203;BME280;10759;51.982;9.232;2023-02-22T00:07:16;100278.63;;;7.63;100.00
21203;BME280;10759;51.982;9.232;2023-02-22T00:09:46;100410.94;;;8.35;100.00
21203;BME280;10759;51.982;9.232;2023-02-22T00:12:15;100403.88;;;8.34;100.00
21203;BME280;10759;51.982;9.232;2023-02-22T00:14:42;100402.28;;;8.27;100.00
21203;BME280;10759;51.982;9.232;2023-02-22T00:17:10;100386.44;;;8.21;100.00
21203;BME280;10759;51.982;9.232;2023-02-22T00:19:39;100350.50;;;8.02;100.00
21203;BME280;10759;51.982;9.232;2023-02-22T00:22:08;100400.34;;;8.32;100.00
21203;BME280;10759;51.982;9.232;2023-02-22T00:24:36;100397.63;;;8.34;100.00
21203;BME280;10759;51.982;9.232;2023-02-22T00:27:04;100399.50;;;8.32;100.00
21203;BME280;10759;51.982;9.232;2023-02-22T00:29:32;100396.81;;;8.32;100.00
21203;BME280;10759;51.982;9.232;2023-02-22T00:32:00;100399.44;;;8.33;100.00
21203;BME280;10759;51.982;9.232;2023-02-22T00:34:28;100394.06;;;8.35;100.00
21203;BME280;10759;51.982;9.232;2023-02-22T00:36:56;100384.38;;;8.31;100.00
21203;BME280;10759;51.982;9.232;2023-02-22T00:39:28;100341.47;;;8.07;100.00
21203;BME280;10759;51.982;9.232;2023-02-22T00:41:58;100386.91;;;8.35;100.00
21203;BME280;10759;51.982;9.232;2023-02-22T00:44:28;100357.19;;;8.16;100.00
21203;BME280;10759;51.982;9.232;2023-02-22T00:46:56;100387.84;;;8.34;100.00
21203;BME280;10759;51.982;9.232;2023-02-22T00:49:23;100378.06;;;8.33;100.00
21203;BME280;10759;51.982;9.232;2023-02-22T00:51:52;100373.59;;;8.34;100.00
21203;BME280;10759;51.982;9.232;2023-02-22T00:54:21;100377.97;;;8.36;100.00
21203;BME280;10759;51.982;9.232;2023-02-22T00:56:50;100356.97;;;8.24;100.00
21203;BME280;10759;51.982;9.232;2023-02-22T00:59:18;100367.47;;;8.30;100.00
21203;BME280;10759;51.982;9.232;2023-02-22T01:01:46;100365.66;;;8.32;100.00
21203;BME280;10759;51.982;9.232;2023-02-22T01:04:14;100368.31;;;8.32;100.00
21203;BME280;10759;51.982;9.232;2023-02-22T01:06:44;100359.72;;;8.21;100.00
21203;BME280;10759;51.982;9.232;2023-02-22T01:09:11;100378.28;;;8.26;100.00
21203;BME280;10759;51.982;9.232;2023-02-22T01:11:40;100272.41;;;7.64;100.00
21203;BME280;10759;51.982;9.232;2023-02-22T01:14:09;100379.16;;;8.26;100.00
21203;BME280;10759;51.982;9.232;2023-02-22T01:16:37;100369.41;;;8.25;100.00
21203;BME280;10759;51.982;9.232;2023-02-22T01:19:05;100368.56;;;8.23;100.00
21203;BME280;10759;51.982;9.232;2023-02-22T01:21:33;100360.44;;;8.28;100.00
21203;BME280;10759;51.982;9.232;2023-02-22T01:24:01;100367.63;;;8.26;100.00
21203;BME280;10759;51.982;9.232;2023-02-22T01:26:29;100354.38;;;8.21;100.00
21203;BME280;10759;51.982;9.232;2023-02-22T01:28:57;100354.38;;;8.21;100.00
21203;BME280;10759;51.982;9.232;2023-02-22T01:31:26;100351.78;;;8.20;100.00
21203;BME280;10759;51.982;9.232;2023-02-22T01:33:54;100348.16;;;8.22;100.00
21203;BME280;10759;51.982;9.232;2023-02-22T01:36:22;100343.78;;;8.20;100.00
21203;BME280;10759;51.982;9.232;2023-02-22T01:38:50;100341.97;;;8.20;100.00
21203;BME280;10759;51.982;9.232;2023-02-22T01:41:19;100332.38;;;8.13;100.00
21203;BME280;10759;51.982;9.232;2023-02-22T01:43:48;100348.19;;;8.21;100.00
21203;BME280;10759;51.982;9.232;2023-02-22T01:46:21;100341.09;;;8.20;100.00
21203;BME280;10759;51.982;9.232;2023-02-22T01:48:53;100338.50;;;8.16;100.00
21203;BME280;10759;51.982;9.232;2023-02-22T01:51:26;100342.94;;;8.17;100.00
21203;BME280;10759;51.982;9.232;2023-02-22T01:53:59;100340.28;;;8.17;100.00
21203;BME280;10759;51.982;9.232;2023-02-22T01:56:30;100318.38;;;8.05;100.00
21203;BME280;10759;51.982;9.232;2023-02-22T01:59:01;100304.03;;;8.09;100.00
21203;BME280;10759;51.982;9.232;2023-02-22T02:01:34;100331.19;;;8.23;100.00
21203;BME280;10759;51.982;9.232;2023-02-22T02:04:06;100256.81;;;7.80;100.00
21203;BME280;10759;51.982;9.232;2023-02-22T02:06:36;100325.97;;;8.20;100.00
21203;BME280;10759;51.982;9.232;2023-02-22T02:09:10;100298.88;;;8.03;100.00
21203;BME280;10759;51.982;9.232;2023-02-22T02:11:41;100262.91;;;7.85;100.00
21203;BME280;10759;51.982;9.232;2023-02-22T02:14:10;100320.63;;;8.20;100.00
21203;BME280;10759;51.982;9.232;2023-02-22T02:16:40;100308.47;;;8.10;100.00
21203;BME280;10759;51.982;9.232;2023-02-22T02:19:17;100317.84;;;8.23;100.00
21203;BME280;10759;51.982;9.232;2023-02-22T02:22:12;100310.59;;;8.28;100.00
21203;BME280;10759;51.982;9.232;2023-02-22T02:25:01;100308.09;;;8.22;100.00
21203;BME280;10759;51.982;9.232;2023-02-22T02:27:46;100294.16;;;8.12;100.00
21203;BME280;10759;51.982;9.232;2023-02-22T02:30:46;100309.00;;;8.21;100.00
21203;BME280;10759;51.982;9.232;2023-02-22T02:33:20;100111.34;;;7.07;100.00
21203;BME280;10759;51.982;9.232;2023-02-22T02:36:00;100297.56;;;8.17;100.00
21203;BME280;10759;51.982;9.232;2023-02-22T02:38:33;100299.44;;;8.14;100.00
21203;BME280;10759;51.982;9.232;2023-02-22T02:41:08;100215.56;;;7.62;100.00
21203;BME280;10759;51.982;9.232;2023-02-22T02:43:41;100297.94;;;8.04;100.00
21203;BME280;10759;51.982;9.232;2023-02-22T02:46:14;100289.22;;;7.97;100.00
21203;BME280;10759;51.982;9.232;2023-02-22T02:48:49;100287.47;;;7.98;100.00
21203;BME280;10759;51.982;9.232;2023-02-22T02:51:23;100284.81;;;7.98;100.00
21203;BME280;10759;51.982;9.232;2023-02-22T02:53:53;100285.59;;;8.00;100.00
21203;BME280;10759;51.982;9.232;2023-02-22T02:56:22;100267.97;;;7.94;100.00
21203;BME280;10759;51.982;9.232;2023-02-22T02:58:51;100243.34;;;7.84;100.00
21203;BME280;10759;51.982;9.232;2023-02-22T03:01:40;100269.59;;;8.00;100.00
21203;BME280;10759;51.982;9.232;2023-02-22T03:04:22;100274.94;;;8.00;100.00
21203;BME280;10759;51.982;9.232;2023-02-22T03:07:13;100246.41;;;8.02;100.00
21203;BME280;10759;51.982;9.232;2023-02-22T03:09:54;100260.50;;;8.07;100.00
21203;BME280;10759;51.982;9.232;2023-02-22T03:12:37;100255.25;;;8.04;100.00
21203;BME280;10759;51.982;9.232;2023-02-22T03:15:18;100116.22;;;7.24;100.00
21203;BME280;10759;51.982;9.232;2023-02-22T03:17:53;100248.06;;;8.06;100.00
21203;BME280;10759;51.982;9.232;2023-02-22T03:20:27;100203.56;;;7.77;100.00
21203;BME280;10759;51.982;9.232;2023-02-22T03:23:04;100257.81;;;8.07;100.00
21203;BME280;10759;51.982;9.232;2023-02-22T03:25:39;100249.81;;;8.07;100.00
21203;BME280;10759;51.982;9.232;2023-02-22T03:28:13;100237.31;;;8.09;100.00
21203;BME280;10759;51.982;9.232;2023-02-22T03:30:47;100246.25;;;8.08;100.00
21203;BME280;10759;51.982;9.232;2023-02-22T03:33:22;100244.44;;;8.08;100.00
21203;BME280;10759;51.982;9.232;2023-02-22T03:36:02;100232.84;;;8.09;100.00
21203;BME280;10759;51.982;9.232;2023-02-22T03:38:32;100231.97;;;8.09;100.00
21203;BME280;10759;51.982;9.232;2023-02-22T03:41:06;100226.09;;;7.98;100.00
21203;BME280;10759;51.982;9.232;2023-02-22T03:43:37;100231.09;;;8.08;100.00
21203;BME280;10759;51.982;9.232;2023-02-22T03:46:11;100216.38;;;7.95;100.00
21203;BME280;10759;51.982;9.232;2023-02-22T03:48:50;100219.72;;;8.02;100.00
21203;BME280;10759;51.982;9.232;2023-02-22T03:51:21;100187.44;;;7.81;100.00
21203;BME280;10759;51.982;9.232;2023-02-22T03:53:56;100232.03;;;8.07;100.00
21203;BME280;10759;51.982;9.232;2023-02-22T03:56:34;100247.94;;;8.10;100.00
21203;BME280;10759;51.982;9.232;2023-02-22T03:59:06;100248.06;;;8.06;100.00
21203;BME280;10759;51.982;9.232;2023-02-22T04:01:36;100241.56;;;8.14;100.00
21203;BME280;10759;51.982;9.232;2023-02-22T04:04:04;100222.34;;;8.03;100.00
21203;BME280;10759;51.982;9.232;2023-02-22T04:06:36;100241.56;;;8.14;100.00
21203;BME280;10759;51.982;9.232;2023-02-22T04:09:04;100231.97;;;8.09;100.00
21203;BME280;10759;51.982;9.232;2023-02-22T04:11:34;100209.97;;;8.01;100.00
21203;BME280;10759;51.982;9.232;2023-02-22T04:14:02;100246.75;;;8.21;100.00
21203;BME280;10759;51.982;9.232;2023-02-22T04:16:30;100237.88;;;8.20;100.00
21203;BME280;10759;51.982;9.232;2023-02-22T04:18:59;100242.28;;;8.21;100.00
21203;BME280;10759;51.982;9.232;2023-02-22T04:21:27;100235.81;;;8.28;100.00
21203;BME280;10759;51.982;9.232;2023-02-22T04:23:57;100230.38;;;8.31;100.00
21203;BME280;10759;51.982;9.232;2023-02-22T04:26:25;100243.56;;;8.37;100.00
21203;BME280;10759;51.982;9.232;2023-02-22T04:28:56;100239.03;;;8.41;100.00
21203;BME280;10759;51.982;9.232;2023-02-22T04:31:27;100192.75;;;8.11;100.00
21203;BME280;10759;51.982;9.232;2023-02-22T04:33:57;100237.06;;;8.46;100.00
21203;BME280;10759;51.982;9.232;2023-02-22T04:36:28;100191.56;;;8.21;100.00
21203;BME280;10759;51.982;9.232;2023-02-22T04:39:00;100236.09;;;8.49;100.00
21203;BME280;10759;51.982;9.232;2023-02-22T04:41:29;100222.97;;;8.43;100.00
21203;BME280;10759;51.982;9.232;2023-02-22T04:43:57;100230.88;;;8.46;100.00
21203;BME280;10759;51.982;9.232;2023-02-22T04:46:26;100234.16;;;8.54;100.00
21203;BME280;10759;51.982;9.232;2023-02-22T04:48:54;100185.34;;;8.21;100.00
21203;BME280;10759;51.982;9.232;2023-02-22T04:51:25;100231.69;;;8.48;100.00
21203;BME280;10759;51.982;9.232;2023-02-22T04:53:59;100229.13;;;8.45;100.00
21203;BME280;10759;51.982;9.232;2023-02-22T04:56:28;100230.69;;;8.52;100.00
21203;BME280;10759;51.982;9.232;2023-02-22T04:58:56;100141.50;;;8.00;100.00
21203;BME280;10759;51.982;9.232;2023-02-22T05:01:24;100232.63;;;8.47;100.00
21203;BME280;10759;51.982;9.232;2023-02-22T05:03:52;100222.97;;;8.43;100.00
21203;BME280;10759;51.982;9.232;2023-02-22T05:06:20;100210.59;;;8.38;100.00
21203;BME280;10759;51.982;9.232;2023-02-22T05:08:48;100217.94;;;8.60;100.00
21203;BME280;10759;51.982;9.232;2023-02-22T05:11:17;100224.50;;;8.50;100.00
21203;BME280;10759;51.982;9.232;2023-02-22T05:13:45;100215.63;;;8.49;100.00
21203;BME280;10759;51.982;9.232;2023-02-22T05:16:13;100209.22;;;8.55;100.00
21203;BME280;10759;51.982;9.232;2023-02-22T05:18:41;100209.59;;;8.43;100.00
21203;BME280;10759;51.982;9.232;2023-02-22T05:21:09;100210.94;;;8.56;100.00
21203;BME280;10759;51.982;9.232;2023-02-22T05:23:38;100171.75;;;8.28;100.00
21203;BME280;10759;51.982;9.232;2023-02-22T05:26:07;100203.34;;;8.44;100.00
21203;BME280;10759;51.982;9.232;2023-02-22T05:28:38;100214.06;;;8.42;100.00
21203;BME280;10759;51.982;9.232;2023-02-22T05:31:07;100196.16;;;8.46;100.00
21203;BME280;10759;51.982;9.232;2023-02-22T05:33:35;100206.00;;;8.44;100.00
21203;BME280;10759;51.982;9.232;2023-02-22T05:36:06;100198.72;;;8.49;100.00
21203;BME280;10759;51.982;9.232;2023-02-22T05:38:35;100192.50;;;8.48;100.00
21203;BME280;10759;51.982;9.232;2023-02-22T05:41:09;100175.88;;;8.38;100.00
21203;BME280;10759;51.982;9.232;2023-02-22T05:43:40;100191.63;;;8.48;100.00
21203;BME280;10759;51.982;9.232;2023-02-22T05:46:08;100196.28;;;8.41;100.00
21203;BME280;10759;51.982;9.232;2023-02-22T05:48:36;100188.13;;;8.46;100.00
21203;BME280;10759;51.982;9.232;2023-02-22T05:51:05;100193.38;;;8.49;100.00
21203;BME280;10759;51.982;9.232;2023-02-22T05:53:33;100190.53;;;8.55;100.00
21203;BME280;10759;51.982;9.232;2023-02-22T05:56:01;100188.53;;;8.62;100.00
21203;BME280;10759;51.982;9.232;2023-02-22T05:58:29;100118.03;;;8.11;100.00
21203;BME280;10759;51.982;9.232;2023-02-22T06:00:58;100130.84;;;8.28;100.00
21203;BME280;10759;51.982;9.232;2023-02-22T06:03:28;100195.59;;;8.63;100.00
21203;BME280;10759;51.982;9.232;2023-02-22T06:05:56;100194.75;;;8.62;100.00
21203;BME280;10759;51.982;9.232;2023-02-22T06:08:24;100191.34;;;8.57;100.00
21203;BME280;10759;51.982;9.232;2023-02-22T06:10:52;100195.03;;;8.53;100.00
21203;BME280;10759;51.982;9.232;2023-02-22T06:13:20;100195.44;;;8.41;100.00
21203;BME280;10759;51.982;9.232;2023-02-22T06:15:48;100192.75;;;8.41;100.00
21203;BME280;10759;51.982;9.232;2023-02-22T06:18:17;100196.25;;;8.43;100.00
21203;BME280;10759;51.982;9.232;2023-02-22T06:20:45;100189.97;;;8.44;100.00
21203;BME280;10759;51.982;9.232;2023-02-22T06:23:13;100197.81;;;8.50;100.00
21203;BME280;10759;51.982;9.232;2023-02-22T06:25:41;100192.38;;;8.53;100.00
21203;BME280;10759;51.982;9.232;2023-02-22T06:28:09;100196.25;;;8.43;100.00
21203;BME280;10759;51.982;9.232;2023-02-22T06:30:39;100179.66;;;8.31;100.00
21203;BME280;10759;51.982;9.232;2023-02-22T06:33:09;100187.97;;;8.52;100.00
21203;BME280;10759;51.982;9.232;2023-02-22T06:35:38;100186.19;;;8.51;100.00
21203;BME280;10759;51.982;9.232;2023-02-22T06:38:07;100159.38;;;8.26;100.00
21203;BME280;10759;51.982;9.232;2023-02-22T06:40:35;100190.91;;;8.43;100.00
21203;BME280;10759;51.982;9.232;2023-02-22T06:43:03;100197.09;;;8.45;100.00
21203;BME280;10759;51.982;9.232;2023-02-22T06:45:31;100199.50;;;8.52;100.00
21203;BME280;10759;51.982;9.232;2023-02-22T06:47:59;100209.06;;;8.59;100.00
21203;BME280;10759;51.982;9.232;2023-02-22T06:50:29;100166.47;;;8.55;100.00
21203;BME280;10759;51.982;9.232;2023-02-22T06:52:58;100199.25;;;8.60;100.00
21203;BME280;10759;51.982;9.232;2023-02-22T06:55:28;100195.06;;;8.51;100.00
21203;BME280;10759;51.982;9.232;2023-02-22T06:57:57;100200.97;;;8.61;100.00
21203;BME280;10759;51.982;9.232;2023-02-22T07:00:27;100184.72;;;8.42;100.00
21203;BME280;10759;51.982;9.232;2023-02-22T07:02:56;100191.34;;;8.57;100.00
21203;BME280;10759;51.982;9.232;2023-02-22T07:05:25;100178.06;;;8.54;100.00
21203;BME280;10759;51.982;9.232;2023-02-22T07:08:00;100191.97;;;8.65;100.00
21203;BME280;10759;51.982;9.232;2023-02-22T07:10:32;100207.69;;;8.74;100.00
21203;BME280;10759;51.982;9.232;2023-02-22T07:13:01;100205.03;;;8.74;100.00
21203;BME280;10759;51.982;9.232;2023-02-22T07:15:32;100208.41;;;8.79;100.00
21203;BME280;10759;51.982;9.232;2023-02-22T07:18:00;100174.38;;;8.58;100.00
21203;BME280;10759;51.982;9.232;2023-02-22T07:20:29;100210.16;;;8.80;100.00
21203;BME280;10759;51.982;9.232;2023-02-22T07:22:57;100199.53;;;8.79;100.00
21203;BME280;10759;51.982;9.232;2023-02-22T07:25:25;100212.00;;;8.78;100.00
21203;BME280;10759;51.982;9.232;2023-02-22T07:27:55;100200.53;;;8.75;100.00
21203;BME280;10759;51.982;9.232;2023-02-22T07:30:25;100212.00;;;8.78;100.00
21203;BME280;10759;51.982;9.232;2023-02-22T07:32:57;100210.38;;;8.74;100.00
21203;BME280;10759;51.982;9.232;2023-02-22T07:35:27;100214.16;;;8.67;100.00
21203;BME280;10759;51.982;9.232;2023-02-22T07:37:55;100181.28;;;8.65;100.00
21203;BME280;10759;51.982;9.232;2023-02-22T07:40:25;100194.59;;;8.67;100.00
21203;BME280;10759;51.982;9.232;2023-02-22T07:42:57;100209.09;;;8.86;100.00
21203;BME280;10759;51.982;9.232;2023-02-22T07:45:27;100211.38;;;8.97;100.00
21203;BME280;10759;51.982;9.232;2023-02-22T07:47:56;100214.44;;;8.86;100.00
21203;BME280;10759;51.982;9.232;2023-02-22T07:50:25;100210.25;;;9.04;100.00
21203;BME280;10759;51.982;9.232;2023-02-22T07:52:55;100211.78;;;9.11;100.00
21203;BME280;10759;51.982;9.232;2023-02-22T07:55:25;100208.66;;;8.98;100.00
21203;BME280;10759;51.982;9.232;2023-02-22T07:57:55;100208.56;;;9.01;100.00
21203;BME280;10759;51.982;9.232;2023-02-22T08:00:25;100169.03;;;8.85;100.00
21203;BME280;10759;51.982;9.232;2023-02-22T08:02:54;100200.03;;;9.15;100.00
21203;BME280;10759;51.982;9.232;2023-02-22T08:05:24;100204.69;;;9.10;100.00
21203;BME280;10759;51.982;9.232;2023-02-22T08:07:52;100202.72;;;9.15;100.00
21203;BME280;10759;51.982;9.232;2023-02-22T08:10:22;100197.06;;;9.24;100.00
21203;BME280;10759;51.982;9.232;2023-02-22T08:12:51;100203.19;;;9.28;100.00
21203;BME280;10759;51.982;9.232;2023-02-22T08:15:24;100203.00;;;9.33;100.00
21203;BME280;10759;51.982;9.232;2023-02-22T08:17:54;100193.06;;;9.36;100.00
21203;BME280;10759;51.982;9.232;2023-02-22T08:20:23;100200.69;;;9.47;100.00
21203;BME280;10759;51.982;9.232;2023-02-22T08:22:51;100186.75;;;9.39;100.00
21203;BME280;10759;51.982;9.232;2023-02-22T08:25:22;100191.84;;;9.45;100.00
21203;BME280;10759;51.982;9.232;2023-02-22T08:27:51;100197.44;;;9.39;100.00
21203;BME280;10759;51.982;9.232;2023-02-22T08:30:26;100199.00;;;9.44;100.00
21203;BME280;10759;51.982;9.232;2023-02-22T08:32:55;100182.94;;;9.46;100.00
21203;BME280;10759;51.982;9.232;2023-02-22T08:35:24;100179.25;;;9.49;100.00
21203;BME280;10759;51.982;9.232;2023-02-22T08:37:55;100176.78;;;9.42;100.00
21203;BME280;10759;51.982;9.232;2023-02-22T08:40:25;100192.91;;;9.41;100.00
21203;BME280;10759;51.982;9.232;2023-02-22T08:42:54;100117.25;;;9.14;100.00
21203;BME280;10759;51.982;9.232;2023-02-22T08:45:22;100166.59;;;9.54;100.00
21203;BME280;10759;51.982;9.232;2023-02-22T08:47:51;100181.66;;;9.56;100.00
21203;BME280;10759;51.982;9.232;2023-02-22T08:50:22;100176.31;;;9.80;100.00
21203;BME280;10759;51.982;9.232;2023-02-22T08:52:51;100180.53;;;9.87;100.00
21203;BME280;10759;51.982;9.232;2023-02-22T08:55:20;100185.44;;;9.98;100.00
21203;BME280;10759;51.982;9.232;2023-02-22T08:57:48;100180.31;;;10.15;100.00
21203;BME280;10759;51.982;9.232;2023-02-22T09:00:18;100177.44;;;10.20;100.00
21203;BME280;10759;51.982;9.232;2023-02-22T09:02:46;100174.25;;;10.34;100.00
21203;BME280;10759;51.982;9.232;2023-02-22T09:05:16;100175.88;;;10.38;100.00
21203;BME280;10759;51.982;9.232;2023-02-22T09:07:44;100160.22;;;10.27;100.00
21203;BME280;10759;51.982;9.232;2023-02-22T09:10:13;100172.28;;;10.39;100.00
21203;BME280;10759;51.982;9.232;2023-02-22T09:12:42;100170.78;;;10.31;100.00
21203;BME280;10759;51.982;9.232;2023-02-22T09:15:10;100172.97;;;10.44;100.00
21203;BME280;10759;51.982;9.232;2023-02-22T09:17:38;100157.88;;;10.41;100.00
21203;BME280;10759;51.982;9.232;2023-02-22T09:20:08;100124.47;;;10.28;100.00
21203;BME280;10759;51.982;9.232;2023-02-22T09:22:39;100167.97;;;10.57;100.00
21203;BME280;10759;51.982;9.232;2023-02-22T09:25:07;100160.16;;;10.50;100.00
21203;BME280;10759;51.982;9.232;2023-02-22T09:27:42;100169.56;;;10.61;100.00
21203;BME280;10759;51.982;9.232;2023-02-22T09:30:16;100130.84;;;10.47;100.00
21203;BME280;10759;51.982;9.232;2023-02-22T09:32:45;100154.06;;;10.69;100.00
21203;BME280;10759;51.982;9.232;2023-02-22T09:35:13;100143.91;;;10.55;100.00
21203;BME280;10759;51.982;9.232;2023-02-22T09:37:42;100153.91;;;10.72;100.00
21203;BME280;10759;51.982;9.232;2023-02-22T09:40:15;100146.91;;;10.90;100.00
21203;BME280;10759;51.982;9.232;2023-02-22T09:42:58;100148.03;;;10.84;100.00
21203;BME280;10759;51.982;9.232;2023-02-22T09:45:31;100150.19;;;10.96;100.00
21203;BME280;10759;51.982;9.232;2023-02-22T09:48:05;100140.38;;;10.75;100.00
21203;BME280;10759;51.982;9.232;2023-02-22T09:50:48;100061.44;;;10.41;100.00
21203;BME280;10759;51.982;9.232;2023-02-22T09:53:24;100145.13;;;10.90;100.00
21203;BME280;10759;51.982;9.232;2023-02-22T09:55:58;100138.66;;;10.74;100.00
21203;BME280;10759;51.982;9.232;2023-02-22T09:58:30;100129.91;;;10.91;100.00
21203;BME280;10759;51.982;9.232;2023-02-22T10:01:11;100137.31;;;11.05;100.00
21203;BME280;10759;51.982;9.232;2023-02-22T10:03:48;100132.63;;;11.10;100.00
21203;BME280;10759;51.982;9.232;2023-02-22T10:06:20;100135.56;;;11.24;100.00
21203;BME280;10759;51.982;9.232;2023-02-22T10:08:51;100132.31;;;11.17;100.00
21203;BME280;10759;51.982;9.232;2023-02-22T10:11:34;100097.44;;;11.17;100.00
21203;BME280;10759;51.982;9.232;2023-02-22T10:14:20;100129.66;;;11.36;100.00
21203;BME280;10759;51.982;9.232;2023-02-22T10:16:56;100121.75;;;11.33;100.00
21203;BME280;10759;51.982;9.232;2023-02-22T10:19:32;100127.63;;;11.42;100.00
21203;BME280;10759;51.982;9.232;2023-02-22T10:22:20;100123.72;;;11.49;100.00
21203;BME280;10759;51.982;9.232;2023-02-22T10:24:59;100123.06;;;11.64;100.00
21203;BME280;10759;51.982;9.232;2023-02-22T10:27:31;100112.28;;;11.45;100.00
21203;BME280;10759;51.982;9.232;2023-02-22T10:30:05;100106.66;;;11.70;100.00
21203;BME280;10759;51.982;9.232;2023-02-22T10:32:53;100111.03;;;11.92;100.00
21203;BME280;10759;51.982;9.232;2023-02-22T10:35:26;100113.56;;;11.95;100.00
21203;BME280;10759;51.982;9.232;2023-02-22T10:37:55;100108.47;;;11.89;100.00
21203;BME280;10759;51.982;9.232;2023-02-22T10:40:26;100116.75;;;12.03;100.00
21203;BME280;10759;51.982;9.232;2023-02-22T10:43:02;100088.31;;;11.99;100.00
21203;BME280;10759;51.982;9.232;2023-02-22T10:45:33;100082.84;;;12.00;100.00
21203;BME280;10759;51.982;9.232;2023-02-22T10:48:06;100102.41;;;12.04;100.00
21203;BME280;10759;51.982;9.232;2023-02-22T10:50:38;100099.50;;;12.09;100.00
21203;BME280;10759;51.982;9.232;2023-02-22T10:53:08;100096.22;;;12.02;100.00
21203;BME280;10759;51.982;9.232;2023-02-22T10:56:06;100097.16;;;12.01;100.00
21203;BME280;10759;51.982;9.232;2023-02-22T10:58:40;100076.13;;;11.92;100.00
21203;BME280;10759;51.982;9.232;2023-02-22T11:01:24;100093.53;;;12.02;100.00
21203;BME280;10759;51.982;9.232;2023-02-22T11:04:03;100097.13;;;12.20;100.00
21203;BME280;10759;51.982;9.232;2023-02-22T11:06:33;100086.56;;;12.34;100.00
21203;BME280;10759;51.982;9.232;2023-02-22T11:09:07;100087.06;;;12.42;100.00
21203;BME280;10759;51.982;9.232;2023-02-22T11:11:39;100089.72;;;12.25;100.00
21203;BME280;10759;51.982;9.232;2023-02-22T11:14:08;100082.69;;;12.22;100.00
21203;BME280;10759;51.982;9.232;2023-02-22T11:16:39;100088.97;;;12.40;100.00
21203;BME280;10759;51.982;9.232;2023-02-22T11:19:17;100003.09;;;11.83;100.00
21203;BME280;10759;51.982;9.232;2023-02-22T11:21:46;100060.25;;;12.23;100.00
21203;BME280;10759;51.982;9.232;2023-02-22T11:24:18;100069.50;;;12.35;100.00
21203;BME280;10759;51.982;9.232;2023-02-22T11:26:54;100065.84;;;12.55;100.00
21203;BME280;10759;51.982;9.232;2023-02-22T11:29:25;100055.31;;;12.51;100.00
21203;BME280;10759;51.982;9.232;2023-02-22T11:31:54;100057.66;;;12.57;100.00
21203;BME280;10759;51.982;9.232;2023-02-22T11:34:29;100039.59;;;12.43;100.00
21203;BME280;10759;51.982;9.232;2023-02-22T11:37:15;100056.00;;;12.54;100.00
21203;BME280;10759;51.982;9.232;2023-02-22T11:39:44;100048.19;;;12.67;100.00
21203;BME280;10759;51.982;9.232;2023-02-22T11:42:22;100044.31;;;12.55;100.00
21203;BME280;10759;51.982;9.232;2023-02-22T11:45:08;100038.69;;;12.77;100.00
21203;BME280;10759;51.982;9.232;2023-02-22T11:47:46;100011.19;;;12.55;100.00
21203;BME280;10759;51.982;9.232;2023-02-22T11:50:20;100031.25;;;12.65;100.00
21203;BME280;10759;51.982;9.232;2023-02-22T11:52:53;100032.22;;;12.64;100.00
21203;BME280;10759;51.982;9.232;2023-02-22T11:55:30;100021.28;;;12.67;100.00
21203;BME280;10759;51.982;9.232;2023-02-22T11:58:25;100019.78;;;12.79;100.00
21203;BME280;10759;51.982;9.232;2023-02-22T12:01:01;99978.53;;;12.45;100.00
21203;BME280;10759;51.982;9.232;2023-02-22T12:06:31;100022.53;;;12.77;100.00
21203;BME280;10759;51.982;9.232;2023-02-22T12:09:11;99975.16;;;12.59;100.00
21203;BME280;10759;51.982;9.232;2023-02-22T12:11:49;100010.75;;;12.97;100.00
21203;BME280;10759;51.982;9.232;2023-02-22T12:14:25;100013.94;;;12.88;100.00
21203;BME280;10759;51.982;9.232;2023-02-22T12:17:09;100011.88;;;12.93;100.00
21203;BME280;10759;51.982;9.232;2023-02-22T12:19:42;99908.63;;;12.29;100.00
21203;BME280;10759;51.982;9.232;2023-02-22T12:22:16;100009.78;;;12.98;100.00
21203;BME280;10759;51.982;9.232;2023-02-22T12:24:48;100001.66;;;13.00;100.00
21203;BME280;10759;51.982;9.232;2023-02-22T12:27:36;99999.91;;;12.99;100.00
21203;BME280;10759;51.982;9.232;2023-02-22T12:30:14;100005.22;;;13.00;100.00
21203;BME280;10759;51.982;9.232;2023-02-22T12:32:50;99996.66;;;13.09;100.00
21203;BME280;10759;51.982;9.232;2023-02-22T12:35:21;99988.81;;;13.05;100.00
21203;BME280;10759;51.982;9.232;2023-02-22T12:37:56;99973.72;;;13.02;100.00
21203;BME280;10759;51.982;9.232;2023-02-22T12:40:32;99824.34;;;12.14;100.00
21203;BME280;10759;51.982;9.232;2023-02-22T12:43:07;99983.09;;;13.11;100.00
21203;BME280;10759;51.982;9.232;2023-02-22T12:45:42;99965.66;;;13.02;100.00
21203;BME280;10759;51.982;9.232;2023-02-22T12:48:29;99978.53;;;13.29;100.00
21203;BME280;10759;51.982;9.232;2023-02-22T12:51:04;99975.72;;;13.32;100.00
21203;BME280;10759;51.982;9.232;2023-02-22T12:53:35;99975.00;;;13.28;100.00
21203;BME280;10759;51.982;9.232;2023-02-22T12:56:15;99970.47;;;13.29;99.62
21203;BME280;10759;51.982;9.232;2023-02-22T12:58:50;99968.41;;;13.34;100.00
21203;BME280;10759;51.982;9.232;2023-02-22T13:01:24;99967.88;;;13.43;100.00
21203;BME280;10759;51.982;9.232;2023-02-22T13:03:55;99969.03;;;13.55;99.65
21203;BME280;10759;51.982;9.232;2023-02-22T13:06:37;99954.00;;;13.51;97.99
21203;BME280;10759;51.982;9.232;2023-02-22T13:09:19;99969.03;;;13.71;98.90
21203;BME280;10759;51.982;9.232;2023-02-22T13:11:55;99961.44;;;13.78;98.94
21203;BME280;10759;51.982;9.232;2023-02-22T13:14:37;99948.84;;;13.78;99.72
21203;BME280;10759;51.982;9.232;2023-02-22T13:17:15;99952.56;;;13.91;95.38